sensor_id;sensor_type;location;lat;lon;timestamp;temperature;humidity
7014;DHT22;3547;50.774;12.918;2023-01-15T00:01:25;8.30;50.20
7014;DHT22;3547;50.774;12.918;2023-01-15T00:03:53;8.40;54.60
7014;DHT22;3547;50.774;12.918;2023-01-15T00:06:21;8.40;53.00
7014;DHT22;3547;50.774;12.918;2023-01-15T00:08:48;8.40;52.60
7014;DHT22;3547;50.774;12.918;2023-01-15T00:11:15;8.50;53.20
7014;DHT22;3547;50.774;12.918;2023-01-15T00:13:41;8.50;53.90
7014;DHT22;3547;50.774;12.918;2023-01-15T00:16:11;8.50;58.00
7014;DHT22;3547;50.774;12.918;2023-01-15T00:18:38;8.50;56.80
7014;DHT22;3547;50.774;12.918;2023-01-15T00:21:06;8.50;59.40
7014;DHT22;3547;50.774;12.918;2023-01-15T00:23:33;8.50;61.30
7014;DHT22;3547;50.774;12.918;2023-01-15T00:26:20;8.50;63.80
7014;DHT22;3547;50.774;12.918;2023-01-15T00:29:12;8.60;66.10
7014;DHT22;3547;50.774;12.918;2023-01-15T00:31:39;8.60;61.00
7014;DHT22;3547;50.774;12.918;2023-01-15T00:34:05;8.60;66.80
7014;DHT22;3547;50.774;12.918;2023-01-15T00:36:31;8.60;59.00
7014;DHT22;3547;50.774;12.918;2023-01-15T00:38:59;8.60;60.50
7014;DHT22;3547;50.774;12.918;2023-01-15T00:41:26;8.70;68.50
7014;DHT22;3547;50.774;12.918;2023-01-15T00:43:52;8.70;63.70
7014;DHT22;3547;50.774;12.918;2023-01-15T00:46:18;8.70;59.80
7014;DHT22;3547;50.774;12.918;2023-01-15T00:48:44;8.70;68.90
7014;DHT22;3547;50.774;12.918;2023-01-15T00:51:10;8.70;69.00
7014;DHT22;3547;50.774;12.918;2023-01-15T00:53:36;8.70;63.20
7014;DHT22;3547;50.774;12.918;2023-01-15T00:56:03;8.80;69.80
7014;DHT22;3547;50.774;12.918;2023-01-15T00:58:29;8.80;69.20
7014;DHT22;3547;50.774;12.918;2023-01-15T01:00:56;8.80;64.60
7014;DHT22;3547;50.774;12.918;2023-01-15T01:03:23;8.90;64.40
7014;DHT22;3547;50.774;12.918;2023-01-15T01:05:50;8.80;63.30
7014;DHT22;3547;50.774;12.918;2023-01-15T01:11:57;8.90;62.60
7014;DHT22;3547;50.774;12.918;2023-01-15T01:14:23;8.90;61.30
7014;DHT22;3547;50.774;12.918;2023-01-15T01:16:49;8.90;66.10
7014;DHT22;3547;50.774;12.918;2023-01-15T01:19:20;9.00;65.60
7014;DHT22;3547;50.774;12.918;2023-01-15T01:21:47;8.90;60.70
7014;DHT22;3547;50.774;12.918;2023-01-15T01:24:17;9.00;60.60
7014;DHT22;3547;50.774;12.918;2023-01-15T01:26:43;9.10;60.70
7014;DHT22;3547;50.774;12.918;2023-01-15T01:29:15;9.10;61.50
7014;DHT22;3547;50.774;12.918;2023-01-15T01:31:42;9.10;59.00
7014;DHT22;3547;50.774;12.918;2023-01-15T01:34:09;9.10;62.70
7014;DHT22;3547;50.774;12.918;2023-01-15T01:36:37;9.20;59.10
7014;DHT22;3547;50.774;12.918;2023-01-15T01:39:05;9.10;63.50
7014;DHT22;3547;50.774;12.918;2023-01-15T01:41:32;9.20;64.80
7014;DHT22;3547;50.774;12.918;2023-01-15T01:44:04;9.10;57.60
7014;DHT22;3547;50.774;12.918;2023-01-15T01:46:32;9.20;60.00
7014;DHT22;3547;50.774;12.918;2023-01-15T01:49:05;9.20;58.00
7014;DHT22;3547;50.774;12.918;2023-01-15T01:51:40;9.20;62.20
7014;DHT22;3547;50.774;12.918;2023-01-15T01:54:09;9.20;64.80
7014;DHT22;3547;50.774;12.918;2023-01-15T01:56:36;9.30;60.10
7014;DHT22;3547;50.774;12.918;2023-01-15T01:59:03;9.30;61.60
7014;DHT22;3547;50.774;12.918;2023-01-15T02:01:30;9.30;66.00
7014;DHT22;3547;50.774;12.918;2023-01-15T02:03:56;9.30;60.70
7014;DHT22;3547;50.774;12.918;2023-01-15T02:06:25;9.30;63.50
7014;DHT22;3547;50.774;12.918;2023-01-15T02:08:51;9.40;57.50
7014;DHT22;3547;50.774;12.918;2023-01-15T02:11:22;9.40;62.30
7014;DHT22;3547;50.774;12.918;2023-01-15T02:27:30;9.50;55.50
7014;DHT22;3547;50.774;12.918;2023-01-15T02:32:34;9.40;52.70
7014;DHT22;3547;50.774;12.918;2023-01-15T02:35:26;9.40;50.60
7014;DHT22;3547;50.774;12.918;2023-01-15T02:37:58;9.40;49.50
7014;DHT22;3547;50.774;12.918;2023-01-15T02:40:27;9.30;46.50
7014;DHT22;3547;50.774;12.918;2023-01-15T02:42:55;9.30;49.70
7014;DHT22;3547;50.774;12.918;2023-01-15T02:45:29;9.40;41.20
7014;DHT22;3547;50.774;12.918;2023-01-15T02:47:59;9.30;46.80
7014;DHT22;3547;50.774;12.918;2023-01-15T02:50:31;9.30;44.50
7014;DHT22;3547;50.774;12.918;2023-01-15T02:53:03;9.30;43.90
7014;DHT22;3547;50.774;12.918;2023-01-15T02:55:36;9.30;44.20
7014;DHT22;3547;50.774;12.918;2023-01-15T02:58:08;9.30;44.10
7014;DHT22;3547;50.774;12.918;2023-01-15T03:00:39;9.30;43.70
7014;DHT22;3547;50.774;12.918;2023-01-15T03:03:25;9.30;44.40
7014;DHT22;3547;50.774;12.918;2023-01-15T03:06:15;9.40;45.50
7014;DHT22;3547;50.774;12.918;2023-01-15T03:08:42;9.40;44.20
7014;DHT22;3547;50.774;12.918;2023-01-15T03:11:13;9.40;44.40
7014;DHT22;3547;50.774;12.918;2023-01-15T03:13:47;9.40;42.90
7014;DHT22;3547;50.774;12.918;2023-01-15T03:21:49;9.40;45.60
7014;DHT22;3547;50.774;12.918;2023-01-15T03:24:41;9.50;40.50
7014;DHT22;3547;50.774;12.918;2023-01-15T03:27:09;9.50;49.00
7014;DHT22;3547;50.774;12.918;2023-01-15T03:29:47;9.50;52.30
7014;DHT22;3547;50.774;12.918;2023-01-15T03:32:15;9.50;45.40
7014;DHT22;3547;50.774;12.918;2023-01-15T03:34:43;9.60;45.60
7014;DHT22;3547;50.774;12.918;2023-01-15T03:37:10;9.60;45.60
7014;DHT22;3547;50.774;12.918;2023-01-15T03:39:37;9.50;45.80
7014;DHT22;3547;50.774;12.918;2023-01-15T03:45:42;9.60;46.20
7014;DHT22;3547;50.774;12.918;2023-01-15T03:48:50;9.60;44.50
7014;DHT22;3547;50.774;12.918;2023-01-15T03:51:19;9.60;44.10
7014;DHT22;3547;50.774;12.918;2023-01-15T03:53:52;9.60;46.30
7014;DHT22;3547;50.774;12.918;2023-01-15T03:59:16;9.50;48.20
7014;DHT22;3547;50.774;12.918;2023-01-15T04:01:44;9.50;49.70
7014;DHT22;3547;50.774;12.918;2023-01-15T04:04:12;9.50;47.70
7014;DHT22;3547;50.774;12.918;2023-01-15T04:06:40;9.50;49.70
7014;DHT22;3547;50.774;12.918;2023-01-15T04:09:10;9.50;49.40
7014;DHT22;3547;50.774;12.918;2023-01-15T04:11:37;9.50;48.70
7014;DHT22;3547;50.774;12.918;2023-01-15T04:14:04;9.60;49.20
7014;DHT22;3547;50.774;12.918;2023-01-15T04:16:32;9.60;49.10
7014;DHT22;3547;50.774;12.918;2023-01-15T04:18:59;9.60;50.20
7014;DHT22;3547;50.774;12.918;2023-01-15T04:21:25;9.60;48.30
7014;DHT22;3547;50.774;12.918;2023-01-15T04:23:51;9.60;44.50
7014;DHT22;3547;50.774;12.918;2023-01-15T04:26:17;9.60;44.80
7014;DHT22;3547;50.774;12.918;2023-01-15T04:28:44;9.60;45.60
7014;DHT22;3547;50.774;12.918;2023-01-15T04:31:10;9.60;46.70
7014;DHT22;3547;50.774;12.918;2023-01-15T04:33:42;9.60;48.20
7014;DHT22;3547;50.774;12.918;2023-01-15T04:36:09;9.60;46.70
7014;DHT22;3547;50.774;12.918;2023-01-15T04:38:36;9.60;48.60
7014;DHT22;3547;50.774;12.918;2023-01-15T04:41:04;9.60;48.70
7014;DHT22;3547;50.774;12.918;2023-01-15T04:43:48;9.60;46.40
7014;DHT22;3547;50.774;12.918;2023-01-15T04:46:39;9.60;49.20
7014;DHT22;3547;50.774;12.918;2023-01-15T04:49:11;9.60;48.30
7014;DHT22;3547;50.774;12.918;2023-01-15T04:51:38;9.60;49.00
7014;DHT22;3547;50.774;12.918;2023-01-15T04:54:06;9.70;49.30
7014;DHT22;3547;50.774;12.918;2023-01-15T04:56:37;9.70;48.00
7014;DHT22;3547;50.774;12.918;2023-01-15T04:59:03;9.70;45.10
7014;DHT22;3547;50.774;12.918;2023-01-15T05:01:30;9.70;45.00
7014;DHT22;3547;50.774;12.918;2023-01-15T05:03:56;9.70;48.00
7014;DHT22;3547;50.774;12.918;2023-01-15T05:06:24;9.70;48.00
7014;DHT22;3547;50.774;12.918;2023-01-15T05:08:51;9.70;47.70
7014;DHT22;3547;50.774;12.918;2023-01-15T05:11:17;9.80;45.30
7014;DHT22;3547;50.774;12.918;2023-01-15T05:13:43;9.80;46.80
7014;DHT22;3547;50.774;12.918;2023-01-15T05:16:15;9.80;47.70
7014;DHT22;3547;50.774;12.918;2023-01-15T05:18:43;9.80;46.80
7014;DHT22;3547;50.774;12.918;2023-01-15T05:21:18;9.80;45.10
7014;DHT22;3547;50.774;12.918;2023-01-15T05:23:46;9.80;49.30
7014;DHT22;3547;50.774;12.918;2023-01-15T05:26:13;9.80;49.80
7014;DHT22;3547;50.774;12.918;2023-01-15T05:28:39;9.80;48.40
7014;DHT22;3547;50.774;12.918;2023-01-15T05:31:13;9.80;51.50
7014;DHT22;3547;50.774;12.918;2023-01-15T05:33:39;9.80;50.50
7014;DHT22;3547;50.774;12.918;2023-01-15T05:36:11;9.80;51.70
7014;DHT22;3547;50.774;12.918;2023-01-15T05:38:39;9.70;54.40
7014;DHT22;3547;50.774;12.918;2023-01-15T05:41:07;9.80;52.20
7014;DHT22;3547;50.774;12.918;2023-01-15T05:44:05;9.70;55.30
7014;DHT22;3547;50.774;12.918;2023-01-15T05:46:34;9.70;53.00
7014;DHT22;3547;50.774;12.918;2023-01-15T05:49:03;9.60;53.30
7014;DHT22;3547;50.774;12.918;2023-01-15T05:51:29;9.60;51.90
7014;DHT22;3547;50.774;12.918;2023-01-15T05:53:59;9.60;52.70
7014;DHT22;3547;50.774;12.918;2023-01-15T05:56:25;9.60;54.00
7014;DHT22;3547;50.774;12.918;2023-01-15T05:58:52;9.60;55.90
7014;DHT22;3547;50.774;12.918;2023-01-15T06:01:19;9.60;53.70
7014;DHT22;3547;50.774;12.918;2023-01-15T06:03:46;9.60;58.70
7014;DHT22;3547;50.774;12.918;2023-01-15T06:06:14;9.60;57.10
7014;DHT22;3547;50.774;12.918;2023-01-15T06:08:42;9.30;99.90
7014;DHT22;3547;50.774;12.918;2023-01-15T06:11:08;8.40;99.90
7014;DHT22;3547;50.774;12.918;2023-01-15T06:13:36;8.10;99.90
7014;DHT22;3547;50.774;12.918;2023-01-15T06:16:05;8.00;1.00
7014;DHT22;3547;50.774;12.918;2023-01-15T06:18:31;8.00;99.90
7014;DHT22;3547;50.774;12.918;2023-01-15T06:21:03;7.90;49.00
7014;DHT22;3547;50.774;12.918;2023-01-15T06:23:31;7.90;1.00
7014;DHT22;3547;50.774;12.918;2023-01-15T06:26:02;7.70;1.00
7014;DHT22;3547;50.774;12.918;2023-01-15T06:28:29;7.70;18.80
7014;DHT22;3547;50.774;12.918;2023-01-15T06:30:55;7.60;39.10
7014;DHT22;3547;50.774;12.918;2023-01-15T06:33:21;7.50;72.90
7014;DHT22;3547;50.774;12.918;2023-01-15T06:35:47;7.60;1.20
7014;DHT22;3547;50.774;12.918;2023-01-15T06:38:14;7.70;1.00
7014;DHT22;3547;50.774;12.918;2023-01-15T06:40:40;7.70;99.90
7014;DHT22;3547;50.774;12.918;2023-01-15T06:43:09;7.70;99.90
7014;DHT22;3547;50.774;12.918;2023-01-15T06:45:54;7.70;99.90
7014;DHT22;3547;50.774;12.918;2023-01-15T06:48:38;7.60;38.00
7014;DHT22;3547;50.774;12.918;2023-01-15T06:51:04;7.50;1.00
7014;DHT22;3547;50.774;12.918;2023-01-15T06:53:30;7.60;1.00
7014;DHT22;3547;50.774;12.918;2023-01-15T06:55:57;7.50;99.90
7014;DHT22;3547;50.774;12.918;2023-01-15T06:58:23;7.50;99.90
7014;DHT22;3547;50.774;12.918;2023-01-15T07:00:49;7.50;1.00
7014;DHT22;3547;50.774;12.918;2023-01-15T07:03:21;7.50;1.00
7014;DHT22;3547;50.774;12.918;2023-01-15T07:05:48;7.40;99.90
7014;DHT22;3547;50.774;12.918;2023-01-15T07:08:14;7.40;99.90
7014;DHT22;3547;50.774;12.918;2023-01-15T07:10:40;7.40;1.00
7014;DHT22;3547;50.774;12.918;2023-01-15T07:13:08;7.40;1.00
7014;DHT22;3547;50.774;12.918;2023-01-15T07:15:38;7.40;99.90
7014;DHT22;3547;50.774;12.918;2023-01-15T07:18:04;7.30;99.90
7014;DHT22;3547;50.774;12.918;2023-01-15T07:20:30;7.30;99.90
7014;DHT22;3547;50.774;12.918;2023-01-15T07:22:57;7.20;99.90
7014;DHT22;3547;50.774;12.918;2023-01-15T07:25:23;7.00;1.00
7014;DHT22;3547;50.774;12.918;2023-01-15T07:27:49;7.00;99.90
7014;DHT22;3547;50.774;12.918;2023-01-15T07:30:15;6.90;1.00
7014;DHT22;3547;50.774;12.918;2023-01-15T07:32:41;6.90;99.90
7014;DHT22;3547;50.774;12.918;2023-01-15T07:35:08;6.80;1.00
7014;DHT22;3547;50.774;12.918;2023-01-15T07:37:35;6.90;1.00
7014;DHT22;3547;50.774;12.918;2023-01-15T07:40:01;6.80;94.80
7014;DHT22;3547;50.774;12.918;2023-01-15T07:42:33;6.60;99.90
7014;DHT22;3547;50.774;12.918;2023-01-15T07:45:18;6.50;54.90
7014;DHT22;3547;50.774;12.918;2023-01-15T07:48:02;6.30;90.20
7014;DHT22;3547;50.774;12.918;2023-01-15T07:50:47;6.20;99.90
7014;DHT22;3547;50.774;12.918;2023-01-15T07:53:13;6.10;99.90
7014;DHT22;3547;50.774;12.918;2023-01-15T07:55:39;5.80;1.00
7014;DHT22;3547;50.774;12.918;2023-01-15T07:58:05;5.70;1.00
7014;DHT22;3547;50.774;12.918;2023-01-15T08:00:31;5.90;25.10
7014;DHT22;3547;50.774;12.918;2023-01-15T08:02:57;6.00;1.00
7014;DHT22;3547;50.774;12.918;2023-01-15T08:05:23;5.90;62.00
7014;DHT22;3547;50.774;12.918;2023-01-15T08:07:49;5.90;1.00
7014;DHT22;3547;50.774;12.918;2023-01-15T08:10:16;6.00;99.90
7014;DHT22;3547;50.774;12.918;2023-01-15T08:12:42;5.80;38.90
7014;DHT22;3547;50.774;12.918;2023-01-15T08:15:32;5.90;99.90
7014;DHT22;3547;50.774;12.918;2023-01-15T08:17:59;5.90;1.00
7014;DHT22;3547;50.774;12.918;2023-01-15T08:20:25;5.90;99.90
7014;DHT22;3547;50.774;12.918;2023-01-15T08:22:52;5.70;1.00
7014;DHT22;3547;50.774;12.918;2023-01-15T08:25:20;5.70;1.00
7014;DHT22;3547;50.774;12.918;2023-01-15T08:27:47;5.70;40.40
7014;DHT22;3547;50.774;12.918;2023-01-15T08:30:18;5.80;1.00
7014;DHT22;3547;50.774;12.918;2023-01-15T08:32:44;5.90;1.00
7014;DHT22;3547;50.774;12.918;2023-01-15T08:35:11;5.90;46.70
7014;DHT22;3547;50.774;12.918;2023-01-15T08:37:39;5.70;39.90
7014;DHT22;3547;50.774;12.918;2023-01-15T08:40:05;5.70;1.00
7014;DHT22;3547;50.774;12.918;2023-01-15T08:42:33;5.90;41.40
7014;DHT22;3547;50.774;12.918;2023-01-15T08:44:59;5.90;99.90
7014;DHT22;3547;50.774;12.918;2023-01-15T08:47:25;5.70;1.00
7014;DHT22;3547;50.774;12.918;2023-01-15T08:49:51;5.60;25.50
7014;DHT22;3547;50.774;12.918;2023-01-15T08:52:17;5.70;99.90
7014;DHT22;3547;50.774;12.918;2023-01-15T08:54:43;5.70;1.00
7014;DHT22;3547;50.774;12.918;2023-01-15T08:57:09;5.80;25.10
7014;DHT22;3547;50.774;12.918;2023-01-15T08:59:37;5.70;1.00
7014;DHT22;3547;50.774;12.918;2023-01-15T09:02:03;5.60;1.00
7014;DHT22;3547;50.774;12.918;2023-01-15T09:04:29;5.40;1.00
7014;DHT22;3547;50.774;12.918;2023-01-15T09:06:55;5.40;1.00
7014;DHT22;3547;50.774;12.918;2023-01-15T09:09:21;5.40;80.20
7014;DHT22;3547;50.774;12.918;2023-01-15T09:11:47;5.40;99.90
7014;DHT22;3547;50.774;12.918;2023-01-15T09:14:14;5.40;99.90
7014;DHT22;3547;50.774;12.918;2023-01-15T09:16:41;5.40;99.90
7014;DHT22;3547;50.774;12.918;2023-01-15T09:19:10;5.20;1.00
7014;DHT22;3547;50.774;12.918;2023-01-15T09:21:37;5.20;1.00
7014;DHT22;3547;50.774;12.918;2023-01-15T09:24:03;5.30;99.90
7014;DHT22;3547;50.774;12.918;2023-01-15T09:26:38;5.10;1.00
7014;DHT22;3547;50.774;12.918;2023-01-15T09:29:06;5.20;99.90
7014;DHT22;3547;50.774;12.918;2023-01-15T09:31:33;5.20;1.00
7014;DHT22;3547;50.774;12.918;2023-01-15T09:33:59;5.20;1.00
7014;DHT22;3547;50.774;12.918;2023-01-15T09:36:28;5.20;1.00
7014;DHT22;3547;50.774;12.918;2023-01-15T09:38:56;5.00;1.00
7014;DHT22;3547;50.774;12.918;2023-01-15T09:41:25;4.90;1.00
7014;DHT22;3547;50.774;12.918;2023-01-15T09:47:20;4.90;99.90
7014;DHT22;3547;50.774;12.918;2023-01-15T09:55:26;5.20;1.00
7014;DHT22;3547;50.774;12.918;2023-01-15T09:57:55;5.30;99.90
7014;DHT22;3547;50.774;12.918;2023-01-15T10:00:24;5.20;1.00
7014;DHT22;3547;50.774;12.918;2023-01-15T10:02:58;5.00;1.00
7014;DHT22;3547;50.774;12.918;2023-01-15T10:06:06;5.20;1.00
7014;DHT22;3547;50.774;12.918;2023-01-15T10:08:45;5.30;99.90
7014;DHT22;3547;50.774;12.918;2023-01-15T10:13:47;5.20;99.90
7014;DHT22;3547;50.774;12.918;2023-01-15T10:16:25;5.30;99.90
7014;DHT22;3547;50.774;12.918;2023-01-15T10:18:52;5.40;99.90
7014;DHT22;3547;50.774;12.918;2023-01-15T10:24:46;5.30;1.00
7014;DHT22;3547;50.774;12.918;2023-01-15T10:26:55;5.00;1.00
7014;DHT22;3547;50.774;12.918;2023-01-15T10:31:51;4.90;1.00
7014;DHT22;3547;50.774;12.918;2023-01-15T10:34:24;4.90;20.70
7014;DHT22;3547;50.774;12.918;2023-01-15T10:45:39;5.00;1.00
7014;DHT22;3547;50.774;12.918;2023-01-15T10:51:05;4.90;1.00
7014;DHT22;3547;50.774;12.918;2023-01-15T10:53:43;4.80;1.00
7014;DHT22;3547;50.774;12.918;2023-01-15T11:01:33;4.60;1.00
7014;DHT22;3547;50.774;12.918;2023-01-15T11:03:59;4.80;1.00
7014;DHT22;3547;50.774;12.918;2023-01-15T11:06:30;4.90;20.10
7014;DHT22;3547;50.774;12.918;2023-01-15T11:08:59;4.90;1.00
7014;DHT22;3547;50.774;12.918;2023-01-15T11:14:40;5.10;1.00
7014;DHT22;3547;50.774;12.918;2023-01-15T11:17:35;5.20;12.40
7014;DHT22;3547;50.774;12.918;2023-01-15T11:20:28;5.30;1.00
7014;DHT22;3547;50.774;12.918;2023-01-15T11:22:57;5.40;1.00
7014;DHT22;3547;50.774;12.918;2023-01-15T11:25:32;5.40;1.00
7014;DHT22;3547;50.774;12.918;2023-01-15T11:28:00;5.40;1.00
7014;DHT22;3547;50.774;12.918;2023-01-15T11:30:36;5.40;1.00
7014;DHT22;3547;50.774;12.918;2023-01-15T11:33:05;5.20;99.90
7014;DHT22;3547;50.774;12.918;2023-01-15T11:35:33;5.30;1.00
7014;DHT22;3547;50.774;12.918;2023-01-15T11:40:32;5.10;1.00
7014;DHT22;3547;50.774;12.918;2023-01-15T11:42:59;5.20;1.00
7014;DHT22;3547;50.774;12.918;2023-01-15T11:48:50;5.20;1.00
7014;DHT22;3547;50.774;12.918;2023-01-15T11:51:41;5.20;99.90
7014;DHT22;3547;50.774;12.918;2023-01-15T11:54:12;5.30;1.00
7014;DHT22;3547;50.774;12.918;2023-01-15T11:56:41;5.20;99.90
7014;DHT22;3547;50.774;12.918;2023-01-15T11:59:14;5.30;99.90
7014;DHT22;3547;50.774;12.918;2023-01-15T12:01:54;5.20;99.90
7014;DHT22;3547;50.774;12.918;2023-01-15T12:04:52;5.20;99.90
7014;DHT22;3547;50.774;12.918;2023-01-15T12:07:21;5.30;99.90
7014;DHT22;3547;50.774;12.918;2023-01-15T12:20:32;5.40;99.90
7014;DHT22;3547;50.774;12.918;2023-01-15T12:28:35;5.30;97.40
7014;DHT22;3547;50.774;12.918;2023-01-15T12:31:36;5.20;89.10
7014;DHT22;3547;50.774;12.918;2023-01-15T12:39:26;5.40;99.90
7014;DHT22;3547;50.774;12.918;2023-01-15T12:41:57;5.30;59.80
7014;DHT22;3547;50.774;12.918;2023-01-15T12:44:56;5.30;95.20
7014;DHT22;3547;50.774;12.918;2023-01-15T12:47:42;5.30;83.70
7014;DHT22;3547;50.774;12.918;2023-01-15T12:50:50;5.20;55.90
7014;DHT22;3547;50.774;12.918;2023-01-15T12:59:12;5.30;94.10
7014;DHT22;3547;50.774;12.918;2023-01-15T13:02:01;5.20;70.10
7014;DHT22;3547;50.774;12.918;2023-01-15T13:05:38;5.20;62.80
7014;DHT22;3547;50.774;12.918;2023-01-15T13:07:41;5.40;89.50
7014;DHT22;3547;50.774;12.918;2023-01-15T13:10:21;5.20;56.20
7014;DHT22;3547;50.774;12.918;2023-01-15T13:12:49;5.30;94.40
7014;DHT22;3547;50.774;12.918;2023-01-15T13:15:19;5.30;69.10
7014;DHT22;3547;50.774;12.918;2023-01-15T13:28:54;5.30;33.20
7014;DHT22;3547;50.774;12.918;2023-01-15T13:31:48;5.20;65.70
7014;DHT22;3547;50.774;12.918;2023-01-15T13:37:33;5.00;52.20
7014;DHT22;3547;50.774;12.918;2023-01-15T13:40:32;5.10;45.50
7014;DHT22;3547;50.774;12.918;2023-01-15T13:43:01;5.00;59.10
7014;DHT22;3547;50.774;12.918;2023-01-15T13:45:46;5.10;51.40
7014;DHT22;3547;50.774;12.918;2023-01-15T13:48:20;5.10;40.80
7014;DHT22;3547;50.774;12.918;2023-01-15T13:51:02;5.10;51.30
7014;DHT22;3547;50.774;12.918;2023-01-15T13:53:36;5.10;36.10
7014;DHT22;3547;50.774;12.918;2023-01-15T13:56:07;5.00;40.10
7014;DHT22;3547;50.774;12.918;2023-01-15T13:58:38;5.00;27.90
7014;DHT22;3547;50.774;12.918;2023-01-15T14:04:03;5.00;19.40
7014;DHT22;3547;50.774;12.918;2023-01-15T14:06:47;5.00;19.30
7014;DHT22;3547;50.774;12.918;2023-01-15T14:22:55;4.70;1.00
7014;DHT22;3547;50.774;12.918;2023-01-15T14:35:53;4.50;1.00
7014;DHT22;3547;50.774;12.918;2023-01-15T14:38:24;4.40;1.00
7014;DHT22;3547;50.774;12.918;2023-01-15T14:41:02;4.50;1.00
7014;DHT22;3547;50.774;12.918;2023-01-15T14:43:34;4.30;1.00
7014;DHT22;3547;50.774;12.918;2023-01-15T14:46:30;4.30;1.00
7014;DHT22;3547;50.774;12.918;2023-01-15T14:49:00;4.30;1.00
7014;DHT22;3547;50.774;12.918;2023-01-15T14:51:47;4.30;1.00
7014;DHT22;3547;50.774;12.918;2023-01-15T14:54:17;4.30;1.00
7014;DHT22;3547;50.774;12.918;2023-01-15T14:56:50;4.30;1.00
7014;DHT22;3547;50.774;12.918;2023-01-15T14:59:29;4.10;1.00
7014;DHT22;3547;50.774;12.918;2023-01-15T15:02:14;4.10;1.00
7014;DHT22;3547;50.774;12.918;2023-01-15T15:04:46;4.00;1.00
7014;DHT22;3547;50.774;12.918;2023-01-15T15:07:16;4.00;1.00
7014;DHT22;3547;50.774;12.918;2023-01-15T15:10:08;3.90;1.00
7014;DHT22;3547;50.774;12.918;2023-01-15T15:18:04;3.80;1.00
7014;DHT22;3547;50.774;12.918;2023-01-15T15:23:07;3.70;1.00
7014;DHT22;3547;50.774;12.918;2023-01-15T15:25:36;3.60;1.00
7014;DHT22;3547;50.774;12.918;2023-01-15T15:28:09;3.60;1.00
7014;DHT22;3547;50.774;12.918;2023-01-15T15:30:40;3.50;1.00
7014;DHT22;3547;50.774;12.918;2023-01-15T15:33:17;3.50;1.00
7014;DHT22;3547;50.774;12.918;2023-01-15T15:35:47;3.50;1.00
7014;DHT22;3547;50.774;12.918;2023-01-15T15:38:21;3.50;1.00
7014;DHT22;3547;50.774;12.918;2023-01-15T15:41:13;3.40;1.00
7014;DHT22;3547;50.774;12.918;2023-01-15T15:43:54;3.40;1.00
7014;DHT22;3547;50.774;12.918;2023-01-15T15:46:48;3.30;1.00
7014;DHT22;3547;50.774;12.918;2023-01-15T15:49:42;3.20;1.00
7014;DHT22;3547;50.774;12.918;2023-01-15T15:52:26;3.20;1.00
7014;DHT22;3547;50.774;12.918;2023-01-15T15:54:59;3.10;1.00
7014;DHT22;3547;50.774;12.918;2023-01-15T15:57:27;3.10;1.00
7014;DHT22;3547;50.774;12.918;2023-01-15T15:59:55;3.10;1.00
7014;DHT22;3547;50.774;12.918;2023-01-15T16:03:03;3.00;1.00
7014;DHT22;3547;50.774;12.918;2023-01-15T16:05:24;3.00;1.00
7014;DHT22;3547;50.774;12.918;2023-01-15T16:07:51;2.90;1.00
7014;DHT22;3547;50.774;12.918;2023-01-15T16:10:24;2.90;1.00
7014;DHT22;3547;50.774;12.918;2023-01-15T16:12:53;2.90;1.00
7014;DHT22;3547;50.774;12.918;2023-01-15T16:15:28;2.80;1.00
7014;DHT22;3547;50.774;12.918;2023-01-15T16:17:56;2.80;1.00
7014;DHT22;3547;50.774;12.918;2023-01-15T16:20:24;2.90;1.00
7014;DHT22;3547;50.774;12.918;2023-01-15T16:22:55;2.90;1.00
7014;DHT22;3547;50.774;12.918;2023-01-15T16:25:33;2.90;1.00
7014;DHT22;3547;50.774;12.918;2023-01-15T16:28:00;2.80;1.00
7014;DHT22;3547;50.774;12.918;2023-01-15T16:30:30;2.80;1.00
7014;DHT22;3547;50.774;12.918;2023-01-15T16:33:03;2.80;1.00
7014;DHT22;3547;50.774;12.918;2023-01-15T16:35:33;2.80;1.00
7014;DHT22;3547;50.774;12.918;2023-01-15T16:38:03;2.80;1.00
7014;DHT22;3547;50.774;12.918;2023-01-15T16:40:36;2.70;1.00
7014;DHT22;3547;50.774;12.918;2023-01-15T16:45:32;2.70;1.00
7014;DHT22;3547;50.774;12.918;2023-01-15T16:50:33;2.70;1.00
7014;DHT22;3547;50.774;12.918;2023-01-15T16:53:01;2.80;1.00
7014;DHT22;3547;50.774;12.918;2023-01-15T16:55:34;2.80;1.00
7014;DHT22;3547;50.774;12.918;2023-01-15T16:58:34;2.80;1.00
7014;DHT22;3547;50.774;12.918;2023-01-15T17:01:22;2.90;1.00
7014;DHT22;3547;50.774;12.918;2023-01-15T17:03:51;2.90;1.00
7014;DHT22;3547;50.774;12.918;2023-01-15T17:06:21;2.80;1.00
7014;DHT22;3547;50.774;12.918;2023-01-15T17:08:49;2.80;1.00
7014;DHT22;3547;50.774;12.918;2023-01-15T17:11:25;2.70;1.00
7014;DHT22;3547;50.774;12.918;2023-01-15T17:14:22;2.80;1.00
7014;DHT22;3547;50.774;12.918;2023-01-15T17:16:49;2.70;1.00
7014;DHT22;3547;50.774;12.918;2023-01-15T17:19:35;2.70;1.00
7014;DHT22;3547;50.774;12.918;2023-01-15T17:22:01;2.60;1.00
7014;DHT22;3547;50.774;12.918;2023-01-15T17:24:27;2.60;1.00
7014;DHT22;3547;50.774;12.918;2023-01-15T17:26:53;2.60;1.00
7014;DHT22;3547;50.774;12.918;2023-01-15T17:29:19;2.60;1.00
7014;DHT22;3547;50.774;12.918;2023-01-15T17:31:45;2.60;1.00
7014;DHT22;3547;50.774;12.918;2023-01-15T17:34:12;2.60;1.00
7014;DHT22;3547;50.774;12.918;2023-01-15T17:36:38;2.50;1.00
7014;DHT22;3547;50.774;12.918;2023-01-15T17:39:04;2.50;1.00
7014;DHT22;3547;50.774;12.918;2023-01-15T17:41:30;2.50;1.00
7014;DHT22;3547;50.774;12.918;2023-01-15T17:43:56;2.50;1.00
7014;DHT22;3547;50.774;12.918;2023-01-15T17:46:22;2.50;1.00
7014;DHT22;3547;50.774;12.918;2023-01-15T17:48:49;2.50;1.00
7014;DHT22;3547;50.774;12.918;2023-01-15T17:51:15;2.50;1.00
7014;DHT22;3547;50.774;12.918;2023-01-15T17:53:41;2.50;1.00
7014;DHT22;3547;50.774;12.918;2023-01-15T17:56:08;2.50;1.00
7014;DHT22;3547;50.774;12.918;2023-01-15T17:59:00;2.50;1.00
7014;DHT22;3547;50.774;12.918;2023-01-15T18:01:46;2.50;1.00
7014;DHT22;3547;50.774;12.918;2023-01-15T18:04:36;2.50;1.00
7014;DHT22;3547;50.774;12.918;2023-01-15T18:07:24;2.50;1.00
7014;DHT22;3547;50.774;12.918;2023-01-15T18:09:52;2.50;1.00
7014;DHT22;3547;50.774;12.918;2023-01-15T18:12:21;2.50;1.00
7014;DHT22;3547;50.774;12.918;2023-01-15T18:14:47;2.50;1.00
7014;DHT22;3547;50.774;12.918;2023-01-15T18:17:13;2.50;1.00
7014;DHT22;3547;50.774;12.918;2023-01-15T18:19:39;2.50;1.00
7014;DHT22;3547;50.774;12.918;2023-01-15T18:22:06;2.50;1.00
7014;DHT22;3547;50.774;12.918;2023-01-15T18:24:32;2.50;1.00
7014;DHT22;3547;50.774;12.918;2023-01-15T18:26:58;2.60;1.00
7014;DHT22;3547;50.774;12.918;2023-01-15T18:29:24;2.60;1.00
7014;DHT22;3547;50.774;12.918;2023-01-15T18:31:50;2.60;1.00
7014;DHT22;3547;50.774;12.918;2023-01-15T18:34:16;2.60;1.00
7014;DHT22;3547;50.774;12.918;2023-01-15T18:36:42;2.60;1.00
7014;DHT22;3547;50.774;12.918;2023-01-15T18:39:09;2.60;1.00
7014;DHT22;3547;50.774;12.918;2023-01-15T18:41:39;2.70;1.00
7014;DHT22;3547;50.774;12.918;2023-01-15T18:44:06;2.70;1.00
7014;DHT22;3547;50.774;12.918;2023-01-15T18:46:56;2.60;1.00
7014;DHT22;3547;50.774;12.918;2023-01-15T18:49:23;2.70;1.00
7014;DHT22;3547;50.774;12.918;2023-01-15T18:51:49;2.70;1.00
7014;DHT22;3547;50.774;12.918;2023-01-15T18:54:34;2.70;1.00
7014;DHT22;3547;50.774;12.918;2023-01-15T18:57:01;2.70;1.00
7014;DHT22;3547;50.774;12.918;2023-01-15T18:59:27;2.70;1.00
7014;DHT22;3547;50.774;12.918;2023-01-15T19:01:53;2.70;1.00
7014;DHT22;3547;50.774;12.918;2023-01-15T19:04:21;2.70;1.00
7014;DHT22;3547;50.774;12.918;2023-01-15T19:06:48;2.80;1.00
7014;DHT22;3547;50.774;12.918;2023-01-15T19:09:14;2.80;1.00
7014;DHT22;3547;50.774;12.918;2023-01-15T19:11:43;2.80;1.00
7014;DHT22;3547;50.774;12.918;2023-01-15T19:14:09;2.80;1.00